Terminal Aerodrome Forecast
Issued by NWS Austin/San Antonio, TX

Current Version | Previous Version | Text Only | Print | Product List | Glossary On
Versions: 1 2 3 4 5 6 7 8 9 10 11 12 13 14 15 16 17 18 19 20
114
FTUS44 KEWX 171953 AAA
TAFAUS
TAF AMD
KAUS 171953Z 1720/1824 17005KT P6SM BKN070
     FM172100 17005KT P6SM BKN150
     FM180000 13005KT 4SM BR OVC006
     FM180300 04003KT 1SM -DZ BR OVC003
     FM181800 04004KT 3SM BR OVC004=

USA.gov is the U.S. government's official web portal to all federal, state and local government web resources and services.